sensor_id;sensor_type;location;lat;lon;timestamp;temperature;humidity
49821;DHT22;36893;52.520;13.450;2023-03-01T00:02:02;22.40;72.10
49821;DHT22;36893;52.520;13.450;2023-03-01T00:12:03;22.40;71.90
49821;DHT22;36893;52.520;13.450;2023-03-01T00:22:04;22.40;71.80
49821;DHT22;36893;52.520;13.450;2023-03-01T00:32:05;22.40;71.70
49821;DHT22;36893;52.520;13.450;2023-03-01T00:42:05;22.50;71.50
49821;DHT22;36893;52.520;13.450;2023-03-01T00:52:07;22.50;71.30
49821;DHT22;36893;52.520;13.450;2023-03-01T01:02:08;22.50;71.20
49821;DHT22;36893;52.520;13.450;2023-03-01T01:12:08;22.50;71.80
49821;DHT22;36893;52.520;13.450;2023-03-01T01:22:09;22.60;70.80
49821;DHT22;36893;52.520;13.450;2023-03-01T01:32:10;22.60;70.60
49821;DHT22;36893;52.520;13.450;2023-03-01T01:42:17;22.60;70.30
49821;DHT22;36893;52.520;13.450;2023-03-01T01:52:31;22.60;70.20
49821;DHT22;36893;52.520;13.450;2023-03-01T02:02:36;22.60;70.00
49821;DHT22;36893;52.520;13.450;2023-03-01T02:12:38;22.70;69.90
49821;DHT22;36893;52.520;13.450;2023-03-01T02:22:40;22.70;69.70
49821;DHT22;36893;52.520;13.450;2023-03-01T02:32:43;22.70;69.60
49821;DHT22;36893;52.520;13.450;2023-03-01T02:42:55;22.70;69.50
49821;DHT22;36893;52.520;13.450;2023-03-01T02:53:21;22.70;69.30
49821;DHT22;36893;52.520;13.450;2023-03-01T03:03:28;22.70;69.10
49821;DHT22;36893;52.520;13.450;2023-03-01T03:13:28;22.70;69.00
49821;DHT22;36893;52.520;13.450;2023-03-01T03:23:29;22.70;68.90
49821;DHT22;36893;52.520;13.450;2023-03-01T03:33:31;22.70;68.60
49821;DHT22;36893;52.520;13.450;2023-03-01T03:43:33;22.70;68.50
49821;DHT22;36893;52.520;13.450;2023-03-01T03:53:35;22.70;68.40
49821;DHT22;36893;52.520;13.450;2023-03-01T04:03:36;22.70;68.30
49821;DHT22;36893;52.520;13.450;2023-03-01T04:13:36;22.80;68.30
49821;DHT22;36893;52.520;13.450;2023-03-01T04:23:37;22.70;68.10
49821;DHT22;36893;52.520;13.450;2023-03-01T04:33:44;22.80;68.10
49821;DHT22;36893;52.520;13.450;2023-03-01T04:43:49;22.70;67.90
49821;DHT22;36893;52.520;13.450;2023-03-01T04:53:49;22.80;67.90
49821;DHT22;36893;52.520;13.450;2023-03-01T05:03:51;22.80;67.80
49821;DHT22;36893;52.520;13.450;2023-03-01T05:13:52;22.70;67.70
49821;DHT22;36893;52.520;13.450;2023-03-01T05:23:55;22.70;67.70
49821;DHT22;36893;52.520;13.450;2023-03-01T05:33:56;22.70;67.70
49821;DHT22;36893;52.520;13.450;2023-03-01T05:43:56;22.70;67.80
49821;DHT22;36893;52.520;13.450;2023-03-01T05:53:57;22.60;67.80
49821;DHT22;36893;52.520;13.450;2023-03-01T06:03:57;22.40;67.90
49821;DHT22;36893;52.520;13.450;2023-03-01T06:13:58;22.30;68.20
49821;DHT22;36893;52.520;13.450;2023-03-01T06:23:59;22.30;68.20
49821;DHT22;36893;52.520;13.450;2023-03-01T06:33:59;22.50;68.10
49821;DHT22;36893;52.520;13.450;2023-03-01T06:44:00;22.50;68.10
49821;DHT22;36893;52.520;13.450;2023-03-01T06:54:01;22.50;68.10
49821;DHT22;36893;52.520;13.450;2023-03-01T07:04:01;22.30;68.40
49821;DHT22;36893;52.520;13.450;2023-03-01T07:14:02;22.20;68.90
49821;DHT22;36893;52.520;13.450;2023-03-01T07:24:05;22.10;69.30
49821;DHT22;36893;52.520;13.450;2023-03-01T07:34:06;22.10;69.60
49821;DHT22;36893;52.520;13.450;2023-03-01T07:44:07;22.10;69.80
49821;DHT22;36893;52.520;13.450;2023-03-01T07:54:08;22.20;69.50
49821;DHT22;36893;52.520;13.450;2023-03-01T08:04:08;22.40;69.40
49821;DHT22;36893;52.520;13.450;2023-03-01T08:14:09;22.40;69.20
49821;DHT22;36893;52.520;13.450;2023-03-01T08:24:10;22.30;69.60
49821;DHT22;36893;52.520;13.450;2023-03-01T08:34:13;22.20;69.80
49821;DHT22;36893;52.520;13.450;2023-03-01T08:44:15;22.10;69.90
49821;DHT22;36893;52.520;13.450;2023-03-01T08:54:21;22.20;69.90
49821;DHT22;36893;52.520;13.450;2023-03-01T09:04:22;22.10;70.00
49821;DHT22;36893;52.520;13.450;2023-03-01T09:14:23;22.10;70.10
49821;DHT22;36893;52.520;13.450;2023-03-01T09:24:24;22.10;70.20
49821;DHT22;36893;52.520;13.450;2023-03-01T09:34:25;22.20;70.40
49821;DHT22;36893;52.520;13.450;2023-03-01T09:54:54;22.20;70.50
49821;DHT22;36893;52.520;13.450;2023-03-01T10:05:12;22.20;70.50
49821;DHT22;36893;52.520;13.450;2023-03-01T10:15:22;22.20;70.60
49821;DHT22;36893;52.520;13.450;2023-03-01T10:25:43;22.20;71.40
49821;DHT22;36893;52.520;13.450;2023-03-01T10:35:53;22.20;70.50
49821;DHT22;36893;52.520;13.450;2023-03-01T10:45:54;22.30;70.60
49821;DHT22;36893;52.520;13.450;2023-03-01T10:56:13;22.30;70.70
49821;DHT22;36893;52.520;13.450;2023-03-01T11:06:22;22.30;70.80
49821;DHT22;36893;52.520;13.450;2023-03-01T11:26:42;22.40;70.80
49821;DHT22;36893;52.520;13.450;2023-03-01T11:36:52;22.40;70.80
49821;DHT22;36893;52.520;13.450;2023-03-01T11:47:08;22.40;70.80
49821;DHT22;36893;52.520;13.450;2023-03-01T11:57:55;22.40;70.80
49821;DHT22;36893;52.520;13.450;2023-03-01T12:08:20;22.50;70.90
49821;DHT22;36893;52.520;13.450;2023-03-01T12:18:44;22.50;70.90
49821;DHT22;36893;52.520;13.450;2023-03-01T12:39:31;22.60;70.80
49821;DHT22;36893;52.520;13.450;2023-03-01T12:49:47;22.60;70.70
49821;DHT22;36893;52.520;13.450;2023-03-01T13:10:59;22.70;70.70
49821;DHT22;36893;52.520;13.450;2023-03-01T13:21:03;22.70;70.70
49821;DHT22;36893;52.520;13.450;2023-03-01T13:31:07;22.70;71.30
49821;DHT22;36893;52.520;13.450;2023-03-01T13:41:08;22.70;70.50
49821;DHT22;36893;52.520;13.450;2023-03-01T13:51:10;22.80;70.30
49821;DHT22;36893;52.520;13.450;2023-03-01T14:01:26;22.70;70.60
49821;DHT22;36893;52.520;13.450;2023-03-01T14:21:47;22.80;70.20
49821;DHT22;36893;52.520;13.450;2023-03-01T14:31:48;22.70;70.00
49821;DHT22;36893;52.520;13.450;2023-03-01T14:41:48;22.70;70.00
49821;DHT22;36893;52.520;13.450;2023-03-01T15:02:02;22.60;69.80
49821;DHT22;36893;52.520;13.450;2023-03-01T15:22:30;22.60;69.60
49821;DHT22;36893;52.520;13.450;2023-03-01T15:32:33;22.40;67.90
49821;DHT22;36893;52.520;13.450;2023-03-01T15:42:36;22.20;68.00
49821;DHT22;36893;52.520;13.450;2023-03-01T15:52:41;22.20;68.10
49821;DHT22;36893;52.520;13.450;2023-03-01T16:02:43;22.20;68.10
49821;DHT22;36893;52.520;13.450;2023-03-01T16:12:44;22.20;68.10
49821;DHT22;36893;52.520;13.450;2023-03-01T16:22:47;22.20;68.20
49821;DHT22;36893;52.520;13.450;2023-03-01T16:32:48;22.20;68.30
49821;DHT22;36893;52.520;13.450;2023-03-01T16:42:50;22.30;68.30
49821;DHT22;36893;52.520;13.450;2023-03-01T16:52:51;22.50;68.10
49821;DHT22;36893;52.520;13.450;2023-03-01T17:02:51;22.70;67.90
49821;DHT22;36893;52.520;13.450;2023-03-01T17:12:52;22.80;67.90
49821;DHT22;36893;52.520;13.450;2023-03-01T17:22:54;22.80;67.80
49821;DHT22;36893;52.520;13.450;2023-03-01T17:32:54;22.90;67.80
49821;DHT22;36893;52.520;13.450;2023-03-01T17:42:55;23.00;67.70
49821;DHT22;36893;52.520;13.450;2023-03-01T17:52:56;23.00;67.60
49821;DHT22;36893;52.520;13.450;2023-03-01T18:02:57;22.90;67.70
49821;DHT22;36893;52.520;13.450;2023-03-01T18:12:58;22.90;67.60
49821;DHT22;36893;52.520;13.450;2023-03-01T18:22:59;22.90;67.60
49821;DHT22;36893;52.520;13.450;2023-03-01T18:32:59;22.80;66.70
49821;DHT22;36893;52.520;13.450;2023-03-01T18:43:00;22.80;66.80
49821;DHT22;36893;52.520;13.450;2023-03-01T18:53:01;22.80;67.00
49821;DHT22;36893;52.520;13.450;2023-03-01T19:03:01;22.80;67.30
49821;DHT22;36893;52.520;13.450;2023-03-01T19:13:03;22.80;67.50
49821;DHT22;36893;52.520;13.450;2023-03-01T19:23:03;22.70;67.60
49821;DHT22;36893;52.520;13.450;2023-03-01T19:33:04;22.70;67.80
49821;DHT22;36893;52.520;13.450;2023-03-01T19:43:04;22.70;67.90
49821;DHT22;36893;52.520;13.450;2023-03-01T19:53:05;22.70;68.00
49821;DHT22;36893;52.520;13.450;2023-03-01T20:03:06;22.70;68.10
49821;DHT22;36893;52.520;13.450;2023-03-01T20:13:06;22.70;68.10
49821;DHT22;36893;52.520;13.450;2023-03-01T20:23:07;22.70;68.20
49821;DHT22;36893;52.520;13.450;2023-03-01T20:33:08;22.70;68.30
49821;DHT22;36893;52.520;13.450;2023-03-01T20:43:09;22.70;68.30
49821;DHT22;36893;52.520;13.450;2023-03-01T20:53:09;22.70;68.30
49821;DHT22;36893;52.520;13.450;2023-03-01T21:03:10;22.70;69.20
49821;DHT22;36893;52.520;13.450;2023-03-01T21:13:10;22.80;68.40
49821;DHT22;36893;52.520;13.450;2023-03-01T21:23:11;22.80;68.30
49821;DHT22;36893;52.520;13.450;2023-03-01T21:33:12;22.80;68.30
49821;DHT22;36893;52.520;13.450;2023-03-01T21:43:12;22.80;68.40
49821;DHT22;36893;52.520;13.450;2023-03-01T21:53:13;22.90;68.30
49821;DHT22;36893;52.520;13.450;2023-03-01T22:03:15;22.90;68.30
49821;DHT22;36893;52.520;13.450;2023-03-01T22:13:16;22.90;68.40
49821;DHT22;36893;52.520;13.450;2023-03-01T22:23:16;22.90;68.30
49821;DHT22;36893;52.520;13.450;2023-03-01T22:33:17;22.90;68.30
49821;DHT22;36893;52.520;13.450;2023-03-01T22:43:18;22.90;68.30
49821;DHT22;36893;52.520;13.450;2023-03-01T22:53:18;22.80;68.40
49821;DHT22;36893;52.520;13.450;2023-03-01T23:03:19;22.80;68.40
49821;DHT22;36893;52.520;13.450;2023-03-01T23:13:20;22.80;68.40
49821;DHT22;36893;52.520;13.450;2023-03-01T23:23:20;22.70;68.40
49821;DHT22;36893;52.520;13.450;2023-03-01T23:33:21;22.80;68.50
49821;DHT22;36893;52.520;13.450;2023-03-01T23:43:22;22.80;68.50
49821;DHT22;36893;52.520;13.450;2023-03-01T23:53:22;22.70;68.40
